Time;durP1;ratioP1;P1;durP2;ratioP2;P2;SDS_P1;SDS_P2;PMS_P1;PMS_P2;Temp;Humidity;BMP_temperature;BMP_pressure;BME280_temperature;BME280_humidity;BME280_pressure;Samples;Min_cycle;Max_cycle;Signal;HPM_P1;HPM_P2
2021/11/16 00:00:52;;;;;;;;;;;14.20;79.50;;;;;;4210523;28;20218;-71
2021/11/16 00:02:55;;;;;;;;;;;14.20;79.60;;;;;;4214113;28;19916;-71
2021/11/16 00:04:58;;;;;;;;;;;14.20;79.60;;;;;;4221871;28;19920;-70
2021/11/16 00:07:01;;;;;;;;;;;14.20;79.60;;;;;;4208929;28;19916;-71
2021/11/16 00:09:04;;;;;;;;;;;14.20;79.60;;;;;;4204956;28;19916;-71
2021/11/16 00:11:07;;;;;;;;;;;14.20;79.60;;;;;;4208448;28;19986;-70
2021/11/16 00:13:11;;;;;;;;;;;14.20;79.60;;;;;;4213225;28;20147;-71
2021/11/16 00:15:14;;;;;;;;;;;14.20;79.60;;;;;;4204836;28;19916;-71
2021/11/16 00:17:18;;;;;;;;;;;14.20;79.60;;;;;;4216613;28;19916;-71
2021/11/16 00:19:21;;;;;;;;;;;14.20;79.60;;;;;;4207444;28;19917;-71
2021/11/16 00:21:25;;;;;;;;;;;14.20;79.60;;;;;;4210708;28;19916;-71
2021/11/16 00:23:34;;;;;;;;;;;14.20;79.60;;;;;;4216955;28;19961;-71
2021/11/16 00:25:37;;;;;;;;;;;14.20;79.60;;;;;;4207948;28;19924;-71
2021/11/16 00:27:40;;;;;;;;;;;14.20;79.50;;;;;;4220026;28;19923;-71
2021/11/16 00:29:43;;;;;;;;;;;14.20;79.40;;;;;;4225109;28;20142;-71
2021/11/16 00:31:45;;;;;;;;;;;14.20;79.50;;;;;;4236474;28;20170;-71
2021/11/16 00:33:50;;;;;;;;;;;14.20;79.40;;;;;;4215797;28;20143;-70
2021/11/16 00:35:53;;;;;;;;;;;14.20;79.60;;;;;;4224170;28;19938;-71
2021/11/16 00:37:56;;;;;;;;;;;14.20;79.50;;;;;;4212528;28;19923;-71
2021/11/16 00:40:03;;;;;;;;;;;14.20;79.50;;;;;;4224051;28;19916;-71
2021/11/16 00:42:06;;;;;;;;;;;14.20;79.60;;;;;;4222357;28;19916;-72
2021/11/16 00:44:09;;;;;;;;;;;14.10;79.50;;;;;;4215472;28;19926;-71
2021/11/16 00:46:12;;;;;;;;;;;14.10;79.50;;;;;;4224169;28;19916;-71
2021/11/16 00:48:17;;;;;;;;;;;14.20;79.50;;;;;;4212311;28;19978;-71
2021/11/16 00:50:21;;;;;;;;;;;14.20;79.70;;;;;;4223651;28;19937;-71
2021/11/16 00:52:24;;;;;;;;;;;14.20;79.60;;;;;;4221127;28;19961;-71
2021/11/16 00:54:27;;;;;;;;;;;14.10;79.40;;;;;;4214871;28;19916;-71
2021/11/16 00:56:29;;;;;;;;;;;14.20;79.40;;;;;;4224227;28;19920;-71
2021/11/16 00:58:33;;;;;;;;;;;14.10;79.50;;;;;;4212698;28;20093;-71
2021/11/16 01:00:36;;;;;;;;;;;14.20;79.50;;;;;;4205127;28;19916;-70
2021/11/16 01:02:38;;;;;;;;;;;14.20;79.50;;;;;;4221911;28;20196;-71
2021/11/16 01:04:47;;;;;;;;;;;14.10;79.30;;;;;;4213971;28;19924;-71
2021/11/16 01:06:51;;;;;;;;;;;14.20;79.40;;;;;;4224561;28;19923;-70
2021/11/16 01:08:54;;;;;;;;;;;14.10;79.40;;;;;;4212718;28;19923;-71
2021/11/16 01:10:57;;;;;;;;;;;14.20;79.40;;;;;;4222849;28;19916;-71
2021/11/16 01:13:00;;;;;;;;;;;14.20;79.40;;;;;;4221586;28;19922;-71
2021/11/16 01:15:04;;;;;;;;;;;14.10;79.40;;;;;;4213573;28;19920;-71
2021/11/16 01:17:06;;;;;;;;;;;14.10;79.50;;;;;;4224011;28;19949;-71
2021/11/16 01:19:10;;;;;;;;;;;14.10;79.40;;;;;;4213396;28;19924;-71
2021/11/16 01:21:13;;;;;;;;;;;14.10;79.40;;;;;;4222101;28;19915;-70
2021/11/16 01:23:18;;;;;;;;;;;14.10;79.40;;;;;;4222493;28;19916;-71
2021/11/16 01:25:21;;;;;;;;;;;14.10;79.50;;;;;;4213274;28;19916;-71
2021/11/16 01:27:25;;;;;;;;;;;14.10;79.40;;;;;;4224046;28;19916;-71
2021/11/16 01:29:28;;;;;;;;;;;14.10;79.40;;;;;;4213279;28;19970;-71
2021/11/16 01:31:31;;;;;;;;;;;14.10;79.40;;;;;;4221547;28;19916;-71
2021/11/16 01:33:49;;;;;;;;;;;14.10;79.40;;;;;;4222087;28;19954;-71
2021/11/16 01:35:52;;;;;;;;;;;14.10;79.50;;;;;;4205271;28;19922;-70
2021/11/16 01:37:55;;;;;;;;;;;14.10;79.50;;;;;;4223588;28;19920;-70
2021/11/16 01:39:59;;;;;;;;;;;14.10;79.50;;;;;;4212051;28;19916;-71
2021/11/16 01:42:02;;;;;;;;;;;14.10;79.50;;;;;;4222684;28;19916;-71
2021/11/16 01:44:05;;;;;;;;;;;14.10;79.50;;;;;;4220383;28;19953;-70
2021/11/16 01:46:11;;;;;;;;;;;14.10;79.50;;;;;;4213589;28;19923;-71
2021/11/16 01:48:14;;;;;;;;;;;14.10;79.50;;;;;;4223261;28;19920;-71
2021/11/16 01:50:17;;;;;;;;;;;14.10;79.40;;;;;;4212306;28;19916;-71
2021/11/16 01:52:20;;;;;;;;;;;14.10;79.50;;;;;;4222062;28;19961;-71
2021/11/16 01:54:23;;;;;;;;;;;14.10;79.40;;;;;;4220844;28;19938;-71
2021/11/16 01:56:28;;;;;;;;;;;14.10;79.40;;;;;;4213232;28;19920;-70
2021/11/16 01:58:30;;;;;;;;;;;14.10;79.40;;;;;;4223140;28;19916;-71
2021/11/16 02:00:35;;;;;;;;;;;14.10;79.40;;;;;;4212462;28;19917;-71
2021/11/16 02:02:38;;;;;;;;;;;14.10;79.50;;;;;;4222022;28;19938;-71
2021/11/16 02:04:41;;;;;;;;;;;14.10;79.50;;;;;;4222604;28;19916;-71
2021/11/16 02:06:44;;;;;;;;;;;14.10;79.40;;;;;;4213550;28;19922;-71
2021/11/16 02:08:47;;;;;;;;;;;14.10;79.40;;;;;;4224092;28;19915;-72
2021/11/16 02:10:51;;;;;;;;;;;14.10;79.40;;;;;;4213640;28;19916;-71
2021/11/16 02:12:55;;;;;;;;;;;14.10;79.40;;;;;;4220545;28;19922;-70
2021/11/16 02:14:58;;;;;;;;;;;14.10;79.40;;;;;;4221168;28;20136;-71
2021/11/16 02:17:01;;;;;;;;;;;14.10;79.40;;;;;;4201081;28;19916;-70
2021/11/16 02:19:04;;;;;;;;;;;14.10;79.50;;;;;;4223052;28;20210;-71
2021/11/16 02:21:09;;;;;;;;;;;14.10;79.40;;;;;;4212910;28;19916;-71
2021/11/16 02:23:12;;;;;;;;;;;14.10;79.40;;;;;;4220035;28;19954;-71
2021/11/16 02:25:15;;;;;;;;;;;14.10;79.40;;;;;;4220872;28;19919;-71
2021/11/16 02:27:18;;;;;;;;;;;14.10;79.40;;;;;;4211185;28;20077;-71
2021/11/16 02:29:21;;;;;;;;;;;14.10;79.50;;;;;;4222735;28;20086;-71
2021/11/16 02:31:24;;;;;;;;;;;14.10;79.50;;;;;;4213566;28;20147;-71
2021/11/16 02:33:26;;;;;;;;;;;14.00;79.30;;;;;;4219250;28;20095;-70
2021/11/16 02:35:29;;;;;;;;;;;14.00;79.40;;;;;;4220875;28;19916;-71
2021/11/16 02:37:33;;;;;;;;;;;14.00;79.30;;;;;;4216913;28;20242;-71
2021/11/16 02:39:36;;;;;;;;;;;14.10;79.40;;;;;;4222643;28;19958;-71
2021/11/16 02:41:39;;;;;;;;;;;14.10;79.40;;;;;;4214042;28;20197;-71
2021/11/16 02:43:42;;;;;;;;;;;14.00;79.40;;;;;;4218852;28;19970;-71
2021/11/16 02:45:45;;;;;;;;;;;14.10;79.40;;;;;;4221924;28;19946;-73
2021/11/16 02:47:48;;;;;;;;;;;14.00;79.30;;;;;;4212304;28;19915;-71
2021/11/16 02:49:52;;;;;;;;;;;14.00;79.30;;;;;;4223576;28;19917;-71
2021/11/16 02:51:55;;;;;;;;;;;14.00;79.40;;;;;;4215554;28;19961;-71
2021/11/16 02:54:00;;;;;;;;;;;14.10;79.30;;;;;;4218519;28;19953;-70
2021/11/16 02:56:02;;;;;;;;;;;14.10;79.40;;;;;;4221477;28;19924;-71
2021/11/16 02:58:06;;;;;;;;;;;14.10;79.40;;;;;;4199464;28;19979;-71
2021/11/16 03:00:11;;;;;;;;;;;14.10;79.40;;;;;;4205532;28;20208;-71
2021/11/16 03:02:13;;;;;;;;;;;14.10;79.40;;;;;;4212534;28;19916;-71
2021/11/16 03:04:20;;;;;;;;;;;14.00;79.40;;;;;;4210541;28;19916;-71
2021/11/16 03:06:23;;;;;;;;;;;14.10;79.40;;;;;;4206592;28;19954;-71
2021/11/16 03:08:26;;;;;;;;;;;14.00;79.30;;;;;;4216680;28;20194;-71
2021/11/16 03:10:31;;;;;;;;;;;14.00;79.50;;;;;;4205335;28;19917;-71
2021/11/16 03:12:34;;;;;;;;;;;14.10;79.50;;;;;;4212546;28;19916;-71
2021/11/16 03:14:36;;;;;;;;;;;14.10;79.40;;;;;;4210747;28;19962;-70
2021/11/16 03:16:39;;;;;;;;;;;14.00;79.40;;;;;;4206741;28;19920;-71
2021/11/16 03:18:43;;;;;;;;;;;14.10;79.50;;;;;;4216677;28;19945;-71
2021/11/16 03:20:47;;;;;;;;;;;14.00;79.40;;;;;;4205377;28;19924;-70
2021/11/16 03:22:52;;;;;;;;;;;14.00;79.40;;;;;;4194123;28;19916;-71
2021/11/16 03:24:55;;;;;;;;;;;14.00;79.40;;;;;;4210450;28;20216;-71
2021/11/16 03:27:02;;;;;;;;;;;14.00;79.40;;;;;;4206674;28;20216;-71
2021/11/16 03:29:11;;;;;;;;;;;14.00;79.40;;;;;;4216319;28;20116;-71
2021/11/16 03:31:21;;;;;;;;;;;14.00;79.40;;;;;;4205476;28;20123;-70
2021/11/16 03:33:24;;;;;;;;;;;14.00;79.40;;;;;;4214284;28;20253;-70
2021/11/16 03:35:26;;;;;;;;;;;14.00;79.40;;;;;;4210233;28;19923;-71
2021/11/16 03:37:30;;;;;;;;;;;14.00;79.30;;;;;;4213534;28;19920;-71
2021/11/16 03:39:33;;;;;;;;;;;14.00;79.30;;;;;;4210485;28;19977;-71
2021/11/16 03:41:36;;;;;;;;;;;14.10;79.40;;;;;;4222093;28;20141;-71
2021/11/16 03:43:41;;;;;;;;;;;14.00;79.30;;;;;;4214133;28;19923;-71
2021/11/16 03:45:44;;;;;;;;;;;14.00;79.30;;;;;;4217282;28;20395;-71
2021/11/16 03:47:47;;;;;;;;;;;14.00;79.30;;;;;;4220535;28;20138;-71
2021/11/16 03:49:49;;;;;;;;;;;14.00;79.30;;;;;;4210425;28;20097;-71
2021/11/16 03:51:53;;;;;;;;;;;14.10;79.40;;;;;;4221688;28;19915;-71
2021/11/16 03:53:56;;;;;;;;;;;14.00;79.40;;;;;;4219505;28;19922;-70
2021/11/16 03:55:59;;;;;;;;;;;14.00;79.30;;;;;;4213407;28;19954;-71
2021/11/16 03:58:03;;;;;;;;;;;14.00;79.40;;;;;;4209752;28;19916;-70
2021/11/16 04:00:08;;;;;;;;;;;14.00;79.40;;;;;;4219710;28;20081;-70
2021/11/16 04:02:11;;;;;;;;;;;14.00;79.40;;;;;;4209829;28;19917;-71
2021/11/16 04:04:17;;;;;;;;;;;14.00;79.40;;;;;;4216682;28;19916;-71
2021/11/16 04:06:21;;;;;;;;;;;14.00;79.30;;;;;;4214492;28;19920;-71
2021/11/16 04:08:24;;;;;;;;;;;14.00;79.40;;;;;;4209705;28;20135;-71
2021/11/16 04:10:27;;;;;;;;;;;14.00;79.40;;;;;;4219345;28;19924;-71
2021/11/16 04:12:30;;;;;;;;;;;14.00;79.30;;;;;;4207997;28;19961;-71
2021/11/16 04:14:32;;;;;;;;;;;14.00;79.40;;;;;;4214679;28;19922;-71
2021/11/16 04:16:36;;;;;;;;;;;14.00;79.40;;;;;;4214555;28;19938;-71
2021/11/16 04:18:39;;;;;;;;;;;14.00;79.30;;;;;;4210564;28;19916;-72
2021/11/16 04:20:43;;;;;;;;;;;14.00;79.30;;;;;;4210755;28;19924;-71
2021/11/16 04:22:46;;;;;;;;;;;14.00;79.40;;;;;;4224594;28;20241;-70
2021/11/16 04:24:48;;;;;;;;;;;14.00;79.40;;;;;;4218970;28;19916;-71
2021/11/16 04:26:51;;;;;;;;;;;14.00;79.30;;;;;;4217923;28;19922;-70
2021/11/16 04:28:54;;;;;;;;;;;14.00;79.40;;;;;;4224007;28;19938;-70
2021/11/16 04:30:59;;;;;;;;;;;14.00;79.40;;;;;;4212774;28;20074;-70
2021/11/16 04:33:04;;;;;;;;;;;14.00;79.40;;;;;;4224397;28;19916;-71
2021/11/16 04:35:09;;;;;;;;;;;14.00;79.40;;;;;;4218595;28;19970;-71
2021/11/16 04:37:12;;;;;;;;;;;14.00;79.40;;;;;;4217651;28;19920;-70
2021/11/16 04:39:14;;;;;;;;;;;14.00;79.40;;;;;;4223902;28;19922;-71
2021/11/16 04:41:17;;;;;;;;;;;14.00;79.40;;;;;;4212322;28;19916;-71
2021/11/16 04:43:25;;;;;;;;;;;14.00;79.40;;;;;;4224534;28;20095;-71
2021/11/16 04:45:27;;;;;;;;;;;14.00;79.40;;;;;;4218720;28;20192;-71
2021/11/16 04:47:53;;;;;;;;;;;14.00;79.40;;;;;;4217147;28;19922;-71
2021/11/16 04:50:09;;;;;;;;;;;14.00;79.40;;;;;;4221303;28;20108;-71
2021/11/16 05:03:32;;;;;;;;;;;14.00;79.50;;;;;;4210197;28;20104;-71
2021/11/16 05:05:36;;;;;;;;;;;14.10;79.50;;;;;;4208345;28;20281;-71
2021/11/16 05:07:42;;;;;;;;;;;13.90;79.40;;;;;;4218302;28;19924;-70
2021/11/16 05:09:45;;;;;;;;;;;13.90;79.50;;;;;;4207286;28;19916;-71
2021/11/16 05:11:48;;;;;;;;;;;13.90;79.40;;;;;;4216452;28;19995;-71
2021/11/16 05:13:51;;;;;;;;;;;13.90;79.40;;;;;;4209672;28;20108;-70
2021/11/16 05:15:54;;;;;;;;;;;13.90;79.50;;;;;;4208207;28;19916;-71
2021/11/16 05:17:57;;;;;;;;;;;14.00;79.40;;;;;;4218405;28;19916;-71
2021/11/16 05:19:59;;;;;;;;;;;14.00;79.50;;;;;;4206938;28;19916;-71
2021/11/16 05:22:04;;;;;;;;;;;14.00;79.40;;;;;;4215444;28;19931;-70
2021/11/16 05:24:07;;;;;;;;;;;14.00;79.40;;;;;;4210393;28;19962;-72
2021/11/16 05:26:10;;;;;;;;;;;13.90;79.40;;;;;;4208474;28;19915;-71
2021/11/16 05:28:13;;;;;;;;;;;14.00;79.50;;;;;;4217942;28;19920;-71
2021/11/16 05:30:16;;;;;;;;;;;14.00;79.50;;;;;;4206868;28;19920;-71
2021/11/16 05:32:18;;;;;;;;;;;14.00;79.40;;;;;;4214487;28;19916;-71
2021/11/16 05:34:21;;;;;;;;;;;14.00;79.40;;;;;;4211164;28;19917;-70
2021/11/16 05:36:24;;;;;;;;;;;14.00;79.40;;;;;;4207826;28;19923;-71
2021/11/16 05:38:29;;;;;;;;;;;14.00;79.50;;;;;;4217899;28;19917;-71
2021/11/16 05:40:32;;;;;;;;;;;14.00;79.40;;;;;;4206806;28;19916;-72
2021/11/16 05:42:35;;;;;;;;;;;14.00;79.50;;;;;;4211358;28;19935;-71
2021/11/16 05:44:38;;;;;;;;;;;14.00;79.40;;;;;;4219580;28;19954;-70
2021/11/16 05:46:41;;;;;;;;;;;14.00;79.40;;;;;;4205163;28;19924;-71
2021/11/16 05:48:44;;;;;;;;;;;14.00;79.40;;;;;;4212317;28;19946;-71
2021/11/16 05:50:47;;;;;;;;;;;14.00;79.40;;;;;;4206234;28;19954;-71
2021/11/16 05:52:50;;;;;;;;;;;14.00;79.50;;;;;;4217194;28;19924;-70
2021/11/16 05:54:54;;;;;;;;;;;13.90;79.40;;;;;;4200558;28;19916;-71
2021/11/16 05:56:57;;;;;;;;;;;14.00;79.50;;;;;;4221944;28;19932;-71
2021/11/16 05:59:00;;;;;;;;;;;13.90;79.40;;;;;;4211954;28;20143;-71
2021/11/16 06:01:03;;;;;;;;;;;14.00;79.60;;;;;;4223309;28;20146;-71
2021/11/16 06:03:05;;;;;;;;;;;14.00;79.50;;;;;;4216879;28;19917;-71
2021/11/16 06:05:08;;;;;;;;;;;14.00;79.40;;;;;;4216728;28;19916;-71
2021/11/16 06:07:13;;;;;;;;;;;13.90;79.50;;;;;;4222036;28;19916;-71
2021/11/16 06:09:16;;;;;;;;;;;13.90;79.40;;;;;;4213950;28;20261;-71
2021/11/16 06:11:22;;;;;;;;;;;13.90;79.40;;;;;;4206286;28;19916;-71
2021/11/16 06:13:25;;;;;;;;;;;13.90;79.40;;;;;;4211662;28;20218;-72
2021/11/16 06:15:28;;;;;;;;;;;14.00;79.50;;;;;;4212436;28;19924;-71
2021/11/16 06:17:30;;;;;;;;;;;13.90;79.40;;;;;;4206231;28;20201;-71
2021/11/16 06:19:35;;;;;;;;;;;14.00;79.50;;;;;;4217865;28;19916;-71
2021/11/16 06:21:38;;;;;;;;;;;14.00;79.50;;;;;;4206165;28;19978;-70
2021/11/16 06:23:40;;;;;;;;;;;13.90;79.40;;;;;;4210939;28;19919;-71
2021/11/16 06:25:44;;;;;;;;;;;14.00;79.40;;;;;;4213713;28;19922;-71
2021/11/16 06:27:48;;;;;;;;;;;13.90;79.40;;;;;;4207175;28;19920;-71
2021/11/16 06:29:51;;;;;;;;;;;14.00;79.50;;;;;;4211482;28;19917;-71
2021/11/16 06:31:53;;;;;;;;;;;13.90;79.50;;;;;;4222665;28;19916;-71
2021/11/16 06:33:59;;;;;;;;;;;14.00;79.50;;;;;;4218210;28;19916;-71
2021/11/16 06:36:02;;;;;;;;;;;14.00;79.50;;;;;;4214520;28;19915;-70
2021/11/16 06:38:04;;;;;;;;;;;13.90;79.40;;;;;;4204886;28;19920;-71
2021/11/16 06:40:07;;;;;;;;;;;14.00;79.40;;;;;;4217809;28;19969;-71
2021/11/16 06:42:13;;;;;;;;;;;14.00;79.50;;;;;;4205391;28;19916;-71
2021/11/16 06:44:19;;;;;;;;;;;14.00;79.50;;;;;;4209531;28;20158;-70
2021/11/16 06:46:21;;;;;;;;;;;13.90;79.50;;;;;;4213216;28;19924;-71
2021/11/16 06:48:24;;;;;;;;;;;14.00;79.50;;;;;;4205509;28;19916;-72
2021/11/16 06:50:27;;;;;;;;;;;13.90;79.40;;;;;;4217557;28;19922;-70
2021/11/16 06:52:33;;;;;;;;;;;13.90;79.40;;;;;;4205579;28;19920;-71
2021/11/16 06:54:36;;;;;;;;;;;13.90;79.50;;;;;;4209650;28;19917;-71
2021/11/16 06:56:40;;;;;;;;;;;13.90;79.60;;;;;;4213623;28;19916;-71
2021/11/16 06:58:42;;;;;;;;;;;13.90;79.60;;;;;;4205800;28;19916;-70
2021/11/16 07:00:47;;;;;;;;;;;13.90;79.50;;;;;;4217559;28;20150;-73
2021/11/16 07:02:57;;;;;;;;;;;13.90;79.60;;;;;;4188905;28;19923;-70
2021/11/16 07:05:07;;;;;;;;;;;13.90;79.60;;;;;;4202445;28;19922;-71
2021/11/16 07:07:10;;;;;;;;;;;13.90;79.60;;;;;;4212227;28;19990;-71
2021/11/16 07:09:14;;;;;;;;;;;13.90;79.60;;;;;;4206447;28;19922;-71
2021/11/16 07:11:19;;;;;;;;;;;13.90;79.50;;;;;;4219219;28;19953;-71
2021/11/16 07:13:21;;;;;;;;;;;13.90;79.60;;;;;;4187999;28;19924;-71
2021/11/16 07:15:30;;;;;;;;;;;13.90;79.60;;;;;;4205028;28;19916;-71
2021/11/16 07:17:35;;;;;;;;;;;13.90;79.60;;;;;;4192827;28;19917;-72
2021/11/16 07:19:39;;;;;;;;;;;13.90;80.00;;;;;;4205703;28;19916;-70
2021/11/16 07:21:44;;;;;;;;;;;13.90;80.20;;;;;;4203995;28;19916;-69
2021/11/16 07:24:01;;;;;;;;;;;13.90;80.30;;;;;;4202513;28;19931;-70
2021/11/16 07:26:11;;;;;;;;;;;14.00;80.50;;;;;;4207454;28;19917;-70
2021/11/16 07:28:14;;;;;;;;;;;14.00;80.10;;;;;;4218087;28;20326;-70
2021/11/16 07:30:19;;;;;;;;;;;14.00;80.20;;;;;;4221112;28;19987;-70
2021/11/16 07:32:23;;;;;;;;;;;14.10;80.10;;;;;;4211595;28;20111;-70
2021/11/16 07:34:28;;;;;;;;;;;14.10;80.10;;;;;;4222538;28;19919;-72
2021/11/16 07:36:32;;;;;;;;;;;14.00;79.80;;;;;;4218994;28;19916;-70
2021/11/16 07:38:34;;;;;;;;;;;14.10;79.90;;;;;;4205142;28;19924;-70
2021/11/16 07:40:41;;;;;;;;;;;14.10;79.90;;;;;;4188878;28;19924;-70
2021/11/16 07:42:49;;;;;;;;;;;14.10;79.80;;;;;;4211897;28;19920;-71
2021/11/16 07:45:02;;;;;;;;;;;14.10;79.90;;;;;;4203077;28;19916;-71
2021/11/16 07:47:07;;;;;;;;;;;14.10;79.60;;;;;;4205812;28;19924;-71
2021/11/16 07:49:10;;;;;;;;;;;14.10;80.20;;;;;;4205082;28;19916;-71
2021/11/16 07:51:20;;;;;;;;;;;14.10;79.50;;;;;;4206165;28;19922;-71
2021/11/16 07:53:24;;;;;;;;;;;14.20;79.50;;;;;;4208336;28;20100;-70
2021/11/16 07:55:28;;;;;;;;;;;14.10;79.20;;;;;;4222148;28;19987;-71
2021/11/16 07:57:41;;;;;;;;;;;14.10;79.40;;;;;;4210278;28;19921;-71
2021/11/16 07:59:44;;;;;;;;;;;14.10;79.70;;;;;;4204189;28;19925;-71
2021/11/16 08:01:58;;;;;;;;;;;14.20;79.90;;;;;;4207996;28;19916;-70
2021/11/16 08:04:07;;;;;;;;;;;14.20;79.90;;;;;;4210702;28;19916;-70
2021/11/16 08:06:16;;;;;;;;;;;14.20;80.20;;;;;;4205269;28;19916;-71
2021/11/16 08:10:41;;;;;;;;;;;14.20;79.90;;;;;;4204091;28;20004;-69
2021/11/16 08:12:46;;;;;;;;;;;14.30;79.10;;;;;;4212752;28;19916;-70
2021/11/16 08:14:56;;;;;;;;;;;14.30;79.30;;;;;;4207253;28;19962;-68
2021/11/16 08:17:02;;;;;;;;;;;14.30;79.40;;;;;;4207266;28;19923;-69
2021/11/16 08:19:08;;;;;;;;;;;14.30;78.90;;;;;;4199452;28;19916;-71
2021/11/16 08:21:12;;;;;;;;;;;14.30;79.40;;;;;;4216312;28;19916;-71
2021/11/16 08:23:17;;;;;;;;;;;14.40;79.80;;;;;;4207926;28;19975;-71
2021/11/16 08:25:22;;;;;;;;;;;14.40;79.40;;;;;;4219069;28;19916;-71
2021/11/16 08:27:27;;;;;;;;;;;14.40;78.90;;;;;;4214671;28;19916;-71
2021/11/16 08:29:32;;;;;;;;;;;14.40;77.70;;;;;;4210343;28;20195;-71
2021/11/16 08:31:42;;;;;;;;;;;14.30;77.40;;;;;;4220993;28;19916;-70
2021/11/16 08:33:46;;;;;;;;;;;14.30;77.80;;;;;;4204307;28;19916;-70
2021/11/16 08:35:51;;;;;;;;;;;14.30;77.50;;;;;;4204549;28;19944;-70
2021/11/16 08:38:03;;;;;;;;;;;14.30;77.10;;;;;;4213482;28;20047;-70
2021/11/16 08:40:08;;;;;;;;;;;14.30;76.80;;;;;;4205492;28;19963;-71
2021/11/16 08:42:21;;;;;;;;;;;14.40;78.30;;;;;;4207284;28;19916;-70
2021/11/16 08:44:30;;;;;;;;;;;14.50;78.10;;;;;;4208332;28;19954;-71
2021/11/16 08:46:34;;;;;;;;;;;14.50;76.80;;;;;;4223814;28;19923;-70
2021/11/16 08:48:40;;;;;;;;;;;14.40;76.10;;;;;;4217457;28;19962;-70
2021/11/16 08:50:45;;;;;;;;;;;14.40;76.20;;;;;;4218591;28;19923;-69
2021/11/16 08:52:50;;;;;;;;;;;14.40;76.20;;;;;;4222496;28;19946;-70
2021/11/16 08:55:00;;;;;;;;;;;14.50;77.50;;;;;;4194813;28;19987;-71
2021/11/16 08:57:15;;;;;;;;;;;14.50;77.80;;;;;;4224491;28;19916;-70
2021/11/16 08:59:24;;;;;;;;;;;14.60;77.60;;;;;;4214214;28;20220;-69
2021/11/16 09:01:29;;;;;;;;;;;14.60;77.40;;;;;;4187334;28;19931;-70
2021/11/16 09:03:34;;;;;;;;;;;14.70;77.30;;;;;;4222022;28;20142;-70
2021/11/16 09:05:41;;;;;;;;;;;14.70;76.80;;;;;;4201786;28;19969;-69
2021/11/16 09:07:48;;;;;;;;;;;14.70;77.00;;;;;;4223209;28;19916;-69
2021/11/16 09:10:00;;;;;;;;;;;14.70;76.90;;;;;;4212635;28;20132;-70
2021/11/16 09:12:05;;;;;;;;;;;14.80;76.70;;;;;;4209958;28;19978;-70
2021/11/16 09:14:11;;;;;;;;;;;14.80;76.50;;;;;;4209218;28;19916;-70
2021/11/16 09:16:17;;;;;;;;;;;14.80;77.10;;;;;;4214770;28;19916;-69
2021/11/16 09:18:21;;;;;;;;;;;14.80;76.70;;;;;;4206395;28;19928;-69
2021/11/16 09:20:26;;;;;;;;;;;14.80;75.90;;;;;;4218512;28;19915;-72
2021/11/16 09:22:35;;;;;;;;;;;14.80;76.00;;;;;;4205434;28;19930;-70
2021/11/16 09:24:39;;;;;;;;;;;14.80;75.90;;;;;;4199287;28;19951;-69
2021/11/16 09:28:55;;;;;;;;;;;14.80;75.80;;;;;;4213078;28;19923;-70
2021/11/16 09:30:58;;;;;;;;;;;14.90;76.30;;;;;;4209300;28;19916;-68
2021/11/16 09:33:05;;;;;;;;;;;14.90;75.70;;;;;;4222360;28;20042;-71
2021/11/16 09:35:08;;;;;;;;;;;15.00;76.20;;;;;;4217207;28;19924;-70
2021/11/16 09:37:13;;;;;;;;;;;15.00;76.20;;;;;;4216202;28;20231;-71
2021/11/16 09:39:18;;;;;;;;;;;15.00;75.80;;;;;;4222006;28;19916;-70
2021/11/16 09:41:29;;;;;;;;;;;15.00;75.20;;;;;;4214170;28;19916;-72
2021/11/16 09:43:32;;;;;;;;;;;15.00;75.30;;;;;;4206003;28;19946;-70
2021/11/16 09:45:41;;;;;;;;;;;15.10;75.30;;;;;;4212489;28;19965;-71
2021/11/16 09:47:44;;;;;;;;;;;15.10;74.90;;;;;;4204346;28;19962;-68
2021/11/16 09:49:52;;;;;;;;;;;15.00;74.80;;;;;;4201823;28;19916;-69
2021/11/16 09:52:00;;;;;;;;;;;15.10;74.80;;;;;;4195506;28;20472;-69
2021/11/16 09:54:04;;;;;;;;;;;15.10;74.80;;;;;;4205363;28;19917;-70
2021/11/16 09:56:20;;;;;;;;;;;15.10;74.70;;;;;;4207172;28;19928;-70
2021/11/16 09:58:26;;;;;;;;;;;15.10;74.90;;;;;;4206958;28;20086;-71
2021/11/16 10:00:33;;;;;;;;;;;15.10;75.00;;;;;;4204546;28;19916;-71
2021/11/16 10:02:37;;;;;;;;;;;15.20;74.90;;;;;;4213825;28;19916;-70
2021/11/16 10:04:46;;;;;;;;;;;15.20;75.10;;;;;;4216509;28;19916;-71
2021/11/16 10:06:50;;;;;;;;;;;15.20;75.20;;;;;;4204668;28;19923;-71
2021/11/16 10:08:54;;;;;;;;;;;15.20;75.00;;;;;;4216381;28;19916;-71
2021/11/16 10:10:59;;;;;;;;;;;15.20;74.30;;;;;;4202192;28;19931;-71
2021/11/16 10:13:03;;;;;;;;;;;15.20;74.50;;;;;;4197899;28;20275;-70
2021/11/16 10:15:06;;;;;;;;;;;15.10;74.80;;;;;;4186695;28;19916;-72
2021/11/16 10:17:09;;;;;;;;;;;15.10;74.70;;;;;;4207310;28;19924;-73
2021/11/16 10:19:16;;;;;;;;;;;15.20;74.50;;;;;;4213506;28;19920;-72
2021/11/16 10:21:19;;;;;;;;;;;15.20;74.60;;;;;;4194678;28;20392;-69
2021/11/16 10:23:30;;;;;;;;;;;15.30;74.60;;;;;;4204220;28;19924;-73
2021/11/16 10:25:33;;;;;;;;;;;15.20;74.50;;;;;;4195689;28;19928;-69
2021/11/16 10:27:37;;;;;;;;;;;15.20;74.50;;;;;;4209986;28;19940;-71
2021/11/16 10:29:39;;;;;;;;;;;15.20;74.50;;;;;;4197191;28;19924;-67
2021/11/16 10:31:42;;;;;;;;;;;15.20;74.40;;;;;;4199066;28;19928;-70
2021/11/16 10:33:49;;;;;;;;;;;15.20;74.20;;;;;;4205511;28;20506;-71
2021/11/16 10:35:53;;;;;;;;;;;15.20;74.10;;;;;;4195957;28;19928;-73
2021/11/16 10:37:58;;;;;;;;;;;15.30;74.30;;;;;;4211352;28;19920;-71
2021/11/16 10:40:09;;;;;;;;;;;15.30;74.40;;;;;;4180164;28;19925;-70
2021/11/16 10:42:15;;;;;;;;;;;15.30;74.40;;;;;;4193849;28;19927;-71
2021/11/16 10:44:21;;;;;;;;;;;15.40;74.70;;;;;;4204417;28;19932;-71
2021/11/16 10:46:26;;;;;;;;;;;15.30;74.40;;;;;;4197168;28;19920;-73
2021/11/16 10:48:29;;;;;;;;;;;15.30;74.60;;;;;;4200221;28;19928;-70
2021/11/16 10:50:32;;;;;;;;;;;15.30;74.80;;;;;;4212134;28;19943;-70
2021/11/16 10:52:37;;;;;;;;;;;15.40;75.40;;;;;;4208734;28;19987;-71
2021/11/16 10:54:55;;;;;;;;;;;15.40;75.40;;;;;;4205923;28;19920;-70
2021/11/16 10:57:00;;;;;;;;;;;15.40;76.10;;;;;;4192928;28;19924;-71
2021/11/16 10:59:03;;;;;;;;;;;15.40;76.00;;;;;;4201060;28;21284;-71
2021/11/16 11:01:08;;;;;;;;;;;15.40;76.30;;;;;;4211979;28;19924;-71
2021/11/16 11:03:17;;;;;;;;;;;15.40;75.70;;;;;;4205683;28;20022;-70
2021/11/16 11:05:31;;;;;;;;;;;15.40;75.40;;;;;;4208743;28;19928;-71
2021/11/16 11:07:35;;;;;;;;;;;15.50;74.80;;;;;;4212094;28;19920;-70
2021/11/16 11:09:38;;;;;;;;;;;15.40;74.70;;;;;;4183494;28;19951;-72
2021/11/16 11:11:42;;;;;;;;;;;15.50;74.60;;;;;;4194072;28;19928;-72
2021/11/16 11:13:47;;;;;;;;;;;15.40;74.40;;;;;;4203293;28;19924;-70
2021/11/16 11:15:50;;;;;;;;;;;15.50;74.10;;;;;;4208515;28;19977;-71
2021/11/16 11:18:05;;;;;;;;;;;15.40;73.60;;;;;;4210381;28;19920;-71
2021/11/16 11:20:09;;;;;;;;;;;15.40;73.70;;;;;;4191640;28;19923;-72
2021/11/16 11:22:22;;;;;;;;;;;15.50;73.90;;;;;;4212888;28;19954;-72
2021/11/16 11:24:28;;;;;;;;;;;15.50;73.80;;;;;;4200762;28;19922;-72
2021/11/16 11:26:41;;;;;;;;;;;15.50;73.80;;;;;;4212081;28;19931;-71
2021/11/16 11:28:53;;;;;;;;;;;15.50;73.60;;;;;;4208241;28;19924;-71
2021/11/16 11:30:57;;;;;;;;;;;15.50;73.50;;;;;;4205144;28;19931;-72
2021/11/16 11:32:59;;;;;;;;;;;15.50;73.40;;;;;;4211274;28;19927;-72
2021/11/16 11:35:13;;;;;;;;;;;15.60;73.70;;;;;;4182039;28;19924;-70
2021/11/16 11:37:18;;;;;;;;;;;15.60;73.90;;;;;;4211425;28;19920;-69
2021/11/16 11:39:22;;;;;;;;;;;15.60;73.60;;;;;;4205603;28;20521;-69
2021/11/16 11:41:25;;;;;;;;;;;15.60;73.80;;;;;;4206112;28;19920;-70
2021/11/16 11:43:30;;;;;;;;;;;15.60;73.70;;;;;;4209959;28;19930;-70
2021/11/16 11:45:35;;;;;;;;;;;15.60;74.30;;;;;;4200334;28;19928;-70
2021/11/16 11:47:40;;;;;;;;;;;15.60;73.30;;;;;;4211513;28;19920;-70
2021/11/16 11:49:43;;;;;;;;;;;15.60;73.60;;;;;;4204823;28;19927;-70
2021/11/16 11:51:47;;;;;;;;;;;15.60;73.80;;;;;;4194871;28;20227;-72
2021/11/16 11:53:49;;;;;;;;;;;15.60;73.30;;;;;;4196539;28;19928;-71
2021/11/16 11:55:53;;;;;;;;;;;15.60;73.30;;;;;;4202840;28;20361;-70
2021/11/16 11:57:56;;;;;;;;;;;15.60;73.30;;;;;;4196205;28;20007;-70
2021/11/16 12:00:01;;;;;;;;;;;15.60;73.30;;;;;;4201349;28;19953;-70
2021/11/16 12:03:47;;;;;;;18.92;9.50;;;15.60;72.70;;;;;;4274362;27;20565;-70
2021/11/16 12:05:51;;;;;;;15.13;8.52;;;15.60;73.80;;;;;;4256292;27;20051;-71
2021/11/16 12:07:55;;;;;;;18.83;9.13;;;15.60;73.80;;;;;;4253574;27;20066;-70
2021/11/16 12:09:59;;;;;;;16.53;9.70;;;15.60;73.90;;;;;;4253490;27;20380;-69
2021/11/16 12:12:02;;;;;;;16.13;9.55;;;15.60;74.00;;;;;;4254611;27;20133;-70
2021/11/16 12:14:13;;;;;;;17.40;8.45;;;15.60;74.10;;;;;;4250325;27;20415;-71
2021/11/16 12:16:21;;;;;;;14.07;8.43;;;15.60;74.30;;;;;;4234969;27;20109;-71
2021/11/16 12:18:36;;;;;;;14.00;8.68;;;15.60;74.40;;;;;;4255950;27;20051;-71
2021/11/16 12:20:46;;;;;;;14.00;7.70;;;15.60;74.30;;;;;;4251043;27;20043;-71